createdAt,value
2023-04-27T00:01:14.163Z,7.53
2023-04-27T00:03:46.069Z,7.48
2023-04-27T00:06:16.801Z,7.44
2023-04-27T00:08:47.295Z,7.33
2023-04-27T00:11:17.809Z,7.27
2023-04-27T00:13:50.926Z,7.18
2023-04-27T00:16:21.737Z,7.08
2023-04-27T00:18:52.488Z,7.04
2023-04-27T00:21:23.538Z,7.01
2023-04-27T00:23:53.878Z,6.96
2023-04-27T00:26:24.765Z,6.91
2023-04-27T00:28:59.274Z,6.82
2023-04-27T00:31:29.756Z,6.76
2023-04-27T00:34:00.298Z,6.75
2023-04-27T00:36:30.813Z,6.69
2023-04-27T00:39:01.394Z,6.66
2023-04-27T00:41:32.927Z,6.63
2023-04-27T00:44:06.152Z,6.59
2023-04-27T00:46:38.624Z,6.53
2023-04-27T00:49:09.209Z,6.51
2023-04-27T00:51:39.744Z,6.53
2023-04-27T00:54:11.200Z,6.47
2023-04-27T00:56:41.648Z,6.46
2023-04-27T00:59:14.988Z,6.38
2023-04-27T01:01:45.670Z,6.34
2023-04-27T01:04:17.217Z,6.35
2023-04-27T01:06:48.166Z,6.30
2023-04-27T01:09:20.137Z,6.23
2023-04-27T01:11:53.408Z,6.18
2023-04-27T01:14:27.601Z,6.15
2023-04-27T01:16:58.657Z,6.15
2023-04-27T01:19:29.307Z,6.14
2023-04-27T01:21:59.792Z,6.05
2023-04-27T01:24:32.914Z,6.04
2023-04-27T01:27:04.482Z,6.00
2023-04-27T01:29:35.013Z,5.94
2023-04-27T01:32:06.456Z,5.91
2023-04-27T01:34:37.124Z,5.88
2023-04-27T01:37:08.142Z,5.85
2023-04-27T01:39:42.234Z,5.78
2023-04-27T01:42:12.748Z,5.73
2023-04-27T01:44:43.800Z,5.69
2023-04-27T01:47:14.376Z,5.66
2023-04-27T01:49:44.816Z,5.65
2023-04-27T01:52:15.616Z,5.61
2023-04-27T01:54:48.756Z,5.59
2023-04-27T01:57:19.853Z,5.57
2023-04-27T01:59:50.399Z,5.51
2023-04-27T02:02:20.988Z,5.46
2023-04-27T02:04:51.716Z,5.48
2023-04-27T02:07:22.952Z,5.45
2023-04-27T02:09:56.100Z,5.37
2023-04-27T02:12:26.696Z,5.35
2023-04-27T02:14:57.407Z,5.35
2023-04-27T02:17:29.450Z,5.36
2023-04-27T02:19:59.941Z,5.35
2023-04-27T02:22:30.932Z,5.33
2023-04-27T02:25:04.107Z,5.30
2023-04-27T02:27:34.861Z,5.26
2023-04-27T02:30:10.418Z,5.28
2023-04-27T02:32:41.650Z,5.25
2023-04-27T02:35:13.211Z,5.24
2023-04-27T02:37:44.115Z,5.16
2023-04-27T02:40:17.569Z,5.15
2023-04-27T02:42:48.129Z,5.10
2023-04-27T02:45:18.945Z,5.12
2023-04-27T02:47:51.131Z,5.12
2023-04-27T02:50:21.881Z,5.12
2023-04-27T02:52:52.379Z,5.10
2023-04-27T02:55:25.844Z,5.07
2023-04-27T02:57:56.372Z,5.06
2023-04-27T03:00:27.197Z,5.01
2023-04-27T03:02:57.990Z,4.99
2023-04-27T03:05:32.047Z,4.97
2023-04-27T03:08:02.756Z,4.92
2023-04-27T03:10:36.317Z,4.91
2023-04-27T03:13:06.739Z,4.92
2023-04-27T03:15:38.083Z,4.85
2023-04-27T03:18:09.414Z,4.86
2023-04-27T03:20:39.920Z,4.80
2023-04-27T03:23:10.391Z,4.77
2023-04-27T03:25:43.655Z,4.75
2023-04-27T03:28:14.143Z,4.72
2023-04-27T03:30:44.704Z,4.65
2023-04-27T03:33:15.604Z,4.62
2023-04-27T03:35:46.046Z,4.58
2023-04-27T03:38:18.079Z,4.58
2023-04-27T03:40:51.538Z,4.54
2023-04-27T03:43:22.967Z,4.53
2023-04-27T03:45:53.557Z,4.59
2023-04-27T03:48:24.771Z,4.54
2023-04-27T03:50:57.346Z,4.54
2023-04-27T03:53:27.888Z,4.59
2023-04-27T03:56:01.041Z,4.59
2023-04-27T03:58:31.868Z,4.59
2023-04-27T04:01:22.448Z,4.52
2023-04-27T04:03:53.876Z,4.54
2023-04-27T04:06:24.714Z,4.58
2023-04-27T04:08:55.692Z,4.58
2023-04-27T04:11:29.363Z,4.59
2023-04-27T04:14:02.245Z,4.58
2023-04-27T04:16:33.426Z,4.62
2023-04-27T04:19:03.947Z,4.63
2023-04-27T04:21:34.838Z,4.68
2023-04-27T04:24:06.204Z,4.71
2023-04-27T04:26:40.257Z,4.72
2023-04-27T04:29:11.276Z,4.74
2023-04-27T04:31:42.427Z,4.78
2023-04-27T04:34:14.699Z,4.82
2023-04-27T04:36:45.641Z,4.89
2023-04-27T04:39:16.668Z,4.94
2023-04-27T04:41:50.258Z,4.97
2023-04-27T04:44:21.262Z,5.08
2023-04-27T04:46:52.123Z,5.15
2023-04-27T04:49:22.685Z,5.22
2023-04-27T04:51:53.689Z,5.25
2023-04-27T04:54:24.150Z,5.33
2023-04-27T04:56:59.140Z,5.46
2023-04-27T04:59:31.979Z,5.54
2023-04-27T05:02:02.546Z,5.62
2023-04-27T05:04:33.251Z,5.74
2023-04-27T05:07:04.973Z,5.87
2023-04-27T05:09:35.551Z,5.95
2023-04-27T05:12:09.619Z,6.07
2023-04-27T05:14:40.095Z,6.24
2023-04-27T05:17:10.789Z,6.38
2023-04-27T05:19:41.256Z,6.53
2023-04-27T05:22:11.720Z,6.66
2023-04-27T05:24:42.259Z,6.83
2023-04-27T05:27:17.299Z,7.03
2023-04-27T05:29:47.709Z,7.16
2023-04-27T05:32:18.226Z,7.28
2023-04-27T05:34:49.562Z,7.40
2023-04-27T05:37:20.232Z,7.53
2023-04-27T05:39:50.948Z,7.63
2023-04-27T05:42:24.028Z,7.73
2023-04-27T05:44:54.533Z,7.83
2023-04-27T05:47:25.580Z,7.93
2023-04-27T05:49:56.793Z,8.02
2023-04-27T05:52:31.220Z,8.11
2023-04-27T05:55:02.255Z,8.21
2023-04-27T05:57:37.024Z,8.32
2023-04-27T06:00:12.989Z,8.31
2023-04-27T06:02:43.528Z,8.36
2023-04-27T06:05:14.267Z,8.34
2023-04-27T06:07:44.865Z,8.40
2023-04-27T06:10:16.641Z,8.42
2023-04-27T06:12:49.741Z,8.57
2023-04-27T06:15:20.217Z,8.76
2023-04-27T06:17:50.920Z,8.72
2023-04-27T06:20:21.760Z,8.55
2023-04-27T06:22:52.425Z,8.53
2023-04-27T06:25:24.461Z,8.56
2023-04-27T06:28:00.735Z,8.76
2023-04-27T06:30:31.161Z,8.73
2023-04-27T06:33:01.756Z,8.75
2023-04-27T06:35:32.346Z,9.04
2023-04-27T06:38:03.922Z,9.55
2023-04-27T06:40:35.722Z,9.90
2023-04-27T06:43:08.930Z,10.21
2023-04-27T06:45:39.339Z,10.59
2023-04-27T06:48:10.052Z,10.64
2023-04-27T06:50:40.852Z,10.91
2023-04-27T06:53:11.872Z,11.04
2023-04-27T06:55:45.597Z,11.09
2023-04-27T06:58:20.080Z,11.12
2023-04-27T07:00:51.057Z,11.25
2023-04-27T07:03:21.355Z,11.19
2023-04-27T07:05:51.995Z,11.33
2023-04-27T07:08:22.450Z,11.52
2023-04-27T07:10:53.502Z,11.76
2023-04-27T07:13:26.251Z,11.98
2023-04-27T07:16:01.195Z,12.43
2023-04-27T07:18:31.701Z,12.63
2023-04-27T07:21:02.420Z,12.54
2023-04-27T07:23:32.929Z,12.74
2023-04-27T07:26:03.513Z,12.81
2023-04-27T07:28:36.891Z,12.71
2023-04-27T07:31:08.533Z,12.96
2023-04-27T07:33:39.017Z,13.13
2023-04-27T07:36:10.105Z,13.54
2023-04-27T07:38:40.874Z,13.78
2023-04-27T07:41:11.331Z,13.99
2023-04-27T07:43:44.452Z,14.23
2023-04-27T07:46:15.173Z,14.45
2023-04-27T07:48:45.857Z,14.53
2023-04-27T07:51:17.730Z,14.60
2023-04-27T07:53:48.210Z,14.90
2023-04-27T07:56:18.652Z,14.93
2023-04-27T07:58:51.973Z,14.95
2023-04-27T08:01:22.507Z,15.13
2023-04-27T08:03:53.208Z,15.10
2023-04-27T08:06:24.001Z,15.34
2023-04-27T08:08:56.317Z,15.56
2023-04-27T08:11:26.770Z,15.54
2023-04-27T08:13:59.890Z,16.00
2023-04-27T08:16:31.547Z,16.32
2023-04-27T08:19:02.081Z,16.99
2023-04-27T08:21:33.054Z,17.04
2023-04-27T08:24:03.492Z,16.95
2023-04-27T08:26:34.012Z,16.99
2023-04-27T08:29:19.311Z,18.09
2023-04-27T08:31:57.728Z,19.78
2023-04-27T08:34:28.632Z,20.70
2023-04-27T08:36:59.296Z,20.41
2023-04-27T08:39:32.910Z,20.30
2023-04-27T08:42:13.632Z,19.42
2023-04-27T08:44:47.968Z,18.81
2023-04-27T08:47:23.479Z,17.68
2023-04-27T08:50:01.978Z,17.56
2023-04-27T08:52:32.539Z,17.05
2023-04-27T08:55:03.683Z,18.30
2023-04-27T08:57:34.266Z,18.74
2023-04-27T09:00:13.472Z,18.71
2023-04-27T09:02:50.768Z,19.46
2023-04-27T09:05:22.161Z,19.03
2023-04-27T09:08:05.656Z,18.32
2023-04-27T09:10:48.328Z,18.01
2023-04-27T09:13:20.180Z,19.70
2023-04-27T09:15:54.944Z,20.17
2023-04-27T09:18:30.201Z,19.67
2023-04-27T09:21:01.071Z,17.95
2023-04-27T09:23:33.562Z,17.20
2023-04-27T09:26:08.242Z,18.06
2023-04-27T09:28:42.950Z,18.67
2023-04-27T09:31:16.251Z,17.66
2023-04-27T09:33:48.835Z,17.44
2023-04-27T09:36:24.463Z,17.22
2023-04-27T09:38:56.281Z,16.78
2023-04-27T09:41:29.080Z,16.42
2023-04-27T09:44:01.908Z,16.20
2023-04-27T09:46:40.046Z,16.02
2023-04-27T09:49:11.882Z,15.90
2023-04-27T09:51:45.017Z,17.41
2023-04-27T09:54:17.924Z,18.23
2023-04-27T09:57:03.160Z,17.46
2023-04-27T09:59:58.684Z,17.90
2023-04-27T10:02:52.210Z,18.29
2023-04-27T10:05:49.515Z,18.00
2023-04-27T10:08:20.665Z,17.45
2023-04-27T10:10:55.524Z,16.76
2023-04-27T10:13:29.343Z,16.43
2023-04-27T10:16:00.067Z,16.25
2023-04-27T10:18:34.518Z,16.66
2023-04-27T10:21:13.923Z,17.40
2023-04-27T10:23:52.044Z,18.25
2023-04-27T10:26:28.028Z,17.68
2023-04-27T10:29:08.818Z,17.76
2023-04-27T10:31:47.094Z,17.54
2023-04-27T10:34:22.265Z,17.59
2023-04-27T10:36:52.950Z,18.91
2023-04-27T10:39:39.789Z,20.21
2023-04-27T10:42:15.480Z,21.22
2023-04-27T10:44:46.430Z,21.65
2023-04-27T10:47:20.185Z,21.44
2023-04-27T10:49:56.308Z,21.45
2023-04-27T10:52:26.814Z,21.16
2023-04-27T10:55:06.205Z,20.09
2023-04-27T10:57:36.729Z,19.48
2023-04-27T11:00:16.359Z,18.88
2023-04-27T11:02:47.286Z,18.42
2023-04-27T11:05:30.650Z,19.65
2023-04-27T11:08:14.842Z,20.58
2023-04-27T11:10:50.455Z,20.00
2023-04-27T11:13:23.510Z,20.08
2023-04-27T11:15:56.093Z,21.06
2023-04-27T11:18:29.706Z,21.43
2023-04-27T11:21:14.224Z,21.26
2023-04-27T11:23:45.730Z,20.38
2023-04-27T11:26:18.514Z,19.27
2023-04-27T11:29:05.655Z,19.32
2023-04-27T11:31:49.141Z,21.41
2023-04-27T11:34:23.208Z,22.75
2023-04-27T11:37:18.325Z,22.71
2023-04-27T11:39:50.073Z,23.04
2023-04-27T11:42:25.346Z,24.33
2023-04-27T11:44:58.211Z,24.97
2023-04-27T11:47:32.913Z,24.90
2023-04-27T11:50:05.288Z,24.21
2023-04-27T11:52:43.011Z,22.84
2023-04-27T11:55:16.454Z,24.69
2023-04-27T11:57:48.299Z,25.78
2023-04-27T12:00:23.215Z,23.87
2023-04-27T12:02:54.283Z,22.54
2023-04-27T12:05:25.432Z,22.49
2023-04-27T12:08:01.254Z,21.82
2023-04-27T12:10:31.976Z,21.45
2023-04-27T12:13:07.882Z,22.16
2023-04-27T12:15:39.218Z,24.94
2023-04-27T12:18:12.758Z,26.41
2023-04-27T12:20:45.037Z,24.51
2023-04-27T12:23:20.876Z,23.61
2023-04-27T12:25:51.529Z,23.18
2023-04-27T12:28:22.021Z,22.55
2023-04-27T12:30:52.503Z,21.64
2023-04-27T12:33:23.315Z,21.64
2023-04-27T12:35:53.899Z,24.24
2023-04-27T12:38:27.256Z,25.81
2023-04-27T12:41:03.153Z,27.26
2023-04-27T12:43:35.472Z,27.63
2023-04-27T12:46:07.847Z,28.04
2023-04-27T12:48:38.790Z,28.11
2023-04-27T12:51:13.333Z,28.25
2023-04-27T12:53:46.716Z,28.78
2023-04-27T12:56:17.452Z,29.32
2023-04-27T12:58:48.519Z,29.58
2023-04-27T13:01:19.876Z,29.95
2023-04-27T13:03:52.116Z,29.67
2023-04-27T13:06:23.145Z,29.65
2023-04-27T13:08:56.678Z,29.44
2023-04-27T13:11:27.921Z,29.40
2023-04-27T13:13:59.195Z,29.56
2023-04-27T13:16:29.842Z,30.05
2023-04-27T13:19:00.690Z,30.33
2023-04-27T13:21:31.385Z,30.30
2023-04-27T13:24:04.548Z,30.32
2023-04-27T13:26:37.717Z,29.69
2023-04-27T13:29:08.304Z,29.92
2023-04-27T13:31:39.133Z,29.65
2023-04-27T13:34:09.708Z,29.38
2023-04-27T13:36:40.260Z,29.20
2023-04-27T13:39:13.484Z,29.47
2023-04-27T13:41:43.928Z,29.92
2023-04-27T13:44:15.054Z,30.60
2023-04-27T13:46:46.035Z,30.90
2023-04-27T13:49:19.298Z,31.16
2023-04-27T13:51:49.986Z,30.11
2023-04-27T13:54:24.120Z,29.25
2023-04-27T13:56:54.778Z,27.18
2023-04-27T13:59:25.372Z,25.87
2023-04-27T14:01:56.892Z,26.13
2023-04-27T14:04:27.648Z,27.58
2023-04-27T14:06:58.209Z,28.70
2023-04-27T14:09:31.341Z,29.65
2023-04-27T14:12:02.218Z,30.01
2023-04-27T14:14:32.757Z,30.24
2023-04-27T14:17:03.365Z,30.47
2023-04-27T14:19:36.568Z,30.82
2023-04-27T14:22:08.432Z,31.38
2023-04-27T14:24:41.518Z,31.30
2023-04-27T14:27:12.216Z,30.64
2023-04-27T14:29:42.808Z,30.92
2023-04-27T14:32:13.695Z,30.83
2023-04-27T14:34:44.395Z,30.55
2023-04-27T14:37:14.844Z,30.38
2023-04-27T14:39:49.141Z,30.50
2023-04-27T14:42:19.687Z,30.37
2023-04-27T14:44:50.236Z,28.99
2023-04-27T14:47:21.105Z,26.00
2023-04-27T14:49:51.754Z,25.06
2023-04-27T14:52:22.274Z,25.36
2023-04-27T14:54:55.792Z,26.82
2023-04-27T14:57:26.748Z,27.67
2023-04-27T14:59:57.298Z,28.32
2023-04-27T15:02:27.906Z,28.58
2023-04-27T15:04:58.467Z,28.64
2023-04-27T15:07:29.141Z,28.36
2023-04-27T15:10:02.408Z,28.11
2023-04-27T15:12:32.855Z,26.95
2023-04-27T15:15:03.920Z,26.27
2023-04-27T15:17:34.547Z,26.27
2023-04-27T15:20:06.056Z,26.18
2023-04-27T15:22:36.808Z,25.95
2023-04-27T15:25:11.475Z,25.44
2023-04-27T15:27:45.044Z,24.85
2023-04-27T15:30:17.633Z,24.37
2023-04-27T15:32:48.377Z,24.11
2023-04-27T15:35:19.248Z,23.82
2023-04-27T15:37:49.760Z,23.45
2023-04-27T15:40:23.014Z,23.14
2023-04-27T15:42:53.634Z,22.66
2023-04-27T15:45:24.148Z,22.13
2023-04-27T15:47:54.800Z,21.61
2023-04-27T15:50:25.543Z,21.18
2023-04-27T15:52:56.432Z,20.69
2023-04-27T15:55:29.492Z,19.94
2023-04-27T15:58:00.091Z,19.29
2023-04-27T16:00:30.996Z,18.85
2023-04-27T16:03:01.787Z,18.46
2023-04-27T16:05:33.002Z,18.18
2023-04-27T16:08:03.476Z,18.11
2023-04-27T16:10:36.658Z,17.91
2023-04-27T16:13:07.180Z,17.77
2023-04-27T16:15:37.730Z,17.62
2023-04-27T16:18:08.448Z,17.48
2023-04-27T16:20:38.693Z,17.33
2023-04-27T16:23:09.102Z,17.22
2023-04-27T16:25:42.214Z,16.86
2023-04-27T16:28:12.820Z,16.71
2023-04-27T16:30:43.371Z,16.76
2023-04-27T16:33:14.041Z,16.65
2023-04-27T16:35:47.627Z,16.39
2023-04-27T16:38:20.680Z,16.17
2023-04-27T16:40:56.179Z,15.98
2023-04-27T16:43:26.972Z,15.89
2023-04-27T16:45:57.581Z,15.77
2023-04-27T16:48:28.588Z,15.73
2023-04-27T16:50:59.159Z,15.64
2023-04-27T16:53:29.674Z,15.58
2023-04-27T16:56:04.134Z,15.50
2023-04-27T16:58:36.440Z,15.38
2023-04-27T17:01:07.464Z,15.19
2023-04-27T17:03:38.378Z,15.08
2023-04-27T17:06:08.861Z,14.97
2023-04-27T17:08:39.616Z,14.92
2023-04-27T17:11:15.030Z,14.87
2023-04-27T17:13:45.546Z,14.81
2023-04-27T17:16:17.346Z,14.80
2023-04-27T17:18:48.830Z,14.67
2023-04-27T17:21:21.763Z,14.46
2023-04-27T17:23:53.417Z,14.30
2023-04-27T17:26:26.592Z,14.20
2023-04-27T17:29:00.195Z,14.23
2023-04-27T17:31:30.824Z,14.13
2023-04-27T17:34:01.391Z,14.05
2023-04-27T17:36:32.036Z,13.82
2023-04-27T17:39:03.429Z,13.78
2023-04-27T17:41:37.189Z,13.78
2023-04-27T17:44:08.304Z,13.67
2023-04-27T17:46:40.210Z,13.70
2023-04-27T17:49:10.773Z,13.64
2023-04-27T17:51:41.680Z,13.64
2023-04-27T17:54:12.544Z,13.70
2023-04-27T17:56:45.756Z,13.67
2023-04-27T17:59:16.770Z,13.55
2023-04-27T18:01:47.925Z,13.50
2023-04-27T18:04:18.752Z,13.43
2023-04-27T18:06:49.378Z,13.49
2023-04-27T18:09:19.914Z,13.45
2023-04-27T18:11:53.183Z,13.45
2023-04-27T18:14:23.812Z,13.27
2023-04-27T18:16:55.116Z,13.04
2023-04-27T18:19:26.116Z,12.87
2023-04-27T18:21:56.595Z,12.79
2023-04-27T18:24:27.655Z,12.77
2023-04-27T18:27:01.008Z,12.60
2023-04-27T18:29:31.859Z,12.59
2023-04-27T18:32:05.879Z,12.58
2023-04-27T18:34:36.976Z,12.57
2023-04-27T18:37:07.139Z,12.39
2023-04-27T18:39:37.575Z,12.26
2023-04-27T18:42:10.864Z,12.18
2023-04-27T18:44:41.454Z,12.19
2023-04-27T18:47:13.966Z,12.23
2023-04-27T18:49:44.444Z,12.29
2023-04-27T18:52:15.032Z,12.26
2023-04-27T18:54:45.532Z,12.19
2023-04-27T18:57:18.629Z,12.10
2023-04-27T18:59:52.112Z,11.98
2023-04-27T19:02:23.021Z,11.82
2023-04-27T19:05:10.251Z,11.81
2023-04-27T19:07:43.138Z,11.96
2023-04-27T19:10:14.985Z,11.99
2023-04-27T19:12:48.099Z,11.97
2023-04-27T19:15:19.000Z,11.88
2023-04-27T19:17:58.582Z,11.81
2023-04-27T19:20:37.372Z,11.72
2023-04-27T19:23:09.708Z,11.66
2023-04-27T19:25:40.660Z,11.60
2023-04-27T19:28:13.889Z,11.61
2023-04-27T19:30:44.311Z,11.58
2023-04-27T19:33:14.986Z,11.55
2023-04-27T19:35:45.806Z,11.49
2023-04-27T19:38:16.409Z,11.46
2023-04-27T19:40:47.180Z,11.43
2023-04-27T19:43:21.167Z,11.39
2023-04-27T19:45:51.836Z,11.37
2023-04-27T19:48:22.351Z,11.34
2023-04-27T19:50:52.852Z,11.29
2023-04-27T19:53:23.582Z,11.28
2023-04-27T19:55:54.948Z,11.24
2023-04-27T19:58:28.148Z,11.21
2023-04-27T20:00:58.578Z,11.17
2023-04-27T20:03:29.229Z,11.15
2023-04-27T20:05:59.984Z,11.14
2023-04-27T20:08:30.761Z,11.11
2023-04-27T20:11:01.501Z,11.04
2023-04-27T20:13:34.888Z,11.01
2023-04-27T20:16:05.544Z,10.98
2023-04-27T20:18:36.635Z,10.95
2023-04-27T20:21:07.591Z,10.90
2023-04-27T20:23:38.063Z,10.86
2023-04-27T20:26:08.548Z,10.83
2023-04-27T20:28:41.832Z,10.82
2023-04-27T20:31:12.820Z,10.80
2023-04-27T20:33:43.107Z,10.75
2023-04-27T20:36:17.833Z,10.71
2023-04-27T20:38:49.599Z,10.70
2023-04-27T20:41:21.494Z,10.68
2023-04-27T20:43:55.589Z,10.69
2023-04-27T20:46:26.513Z,10.68
2023-04-27T20:48:57.514Z,10.65
2023-04-27T20:51:28.100Z,10.60
2023-04-27T20:53:59.301Z,10.58
2023-04-27T20:56:30.853Z,10.54
2023-04-27T20:59:04.499Z,10.52
2023-04-27T21:01:35.901Z,10.46
2023-04-27T21:04:06.655Z,10.44
2023-04-27T21:06:37.337Z,10.42
2023-04-27T21:09:07.991Z,10.38
2023-04-27T21:11:38.674Z,10.38
2023-04-27T21:14:11.751Z,10.34
2023-04-27T21:16:42.283Z,10.29
2023-04-27T21:19:14.853Z,10.23
2023-04-27T21:21:47.453Z,10.22
2023-04-27T21:24:19.661Z,10.22
2023-04-27T21:26:50.558Z,10.21
2023-04-27T21:29:23.819Z,10.21
2023-04-27T21:31:54.326Z,10.22
2023-04-27T21:34:24.850Z,10.19
2023-04-27T21:36:55.377Z,10.15
2023-04-27T21:39:26.005Z,10.13
2023-04-27T21:41:56.637Z,10.15
2023-04-27T21:44:32.896Z,10.16
2023-04-27T21:47:03.298Z,10.15
2023-04-27T21:49:34.007Z,10.13
2023-04-27T21:52:04.542Z,10.11
2023-04-27T21:54:35.816Z,10.09
2023-04-27T21:57:06.961Z,10.09
2023-04-27T21:59:39.738Z,10.06
2023-04-27T22:02:10.364Z,10.02
2023-04-27T22:04:41.470Z,9.99
2023-04-27T22:07:12.262Z,9.96
2023-04-27T22:09:42.645Z,9.96
2023-04-27T22:12:13.221Z,9.97
2023-04-27T22:14:47.143Z,9.96
2023-04-27T22:17:17.621Z,9.98
2023-04-27T22:19:48.417Z,10.00
2023-04-27T22:22:18.904Z,9.98
2023-04-27T22:24:49.462Z,9.99
2023-04-27T22:27:20.063Z,9.99
2023-04-27T22:29:53.263Z,10.01
2023-04-27T22:32:23.715Z,9.97
2023-04-27T22:34:54.437Z,9.99
2023-04-27T22:37:25.066Z,9.97
2023-04-27T22:39:56.226Z,9.96
2023-04-27T22:42:26.590Z,9.95
2023-04-27T22:44:59.490Z,9.92
2023-04-27T22:47:30.374Z,9.94
2023-04-27T22:50:02.113Z,9.94
2023-04-27T22:52:33.997Z,9.96
2023-04-27T22:55:04.800Z,10.00
2023-04-27T22:57:35.360Z,10.01
2023-04-27T23:00:13.143Z,9.99
2023-04-27T23:02:44.211Z,9.96
2023-04-27T23:05:15.505Z,9.91
2023-04-27T23:07:50.502Z,9.89
2023-04-27T23:10:21.800Z,9.88
2023-04-27T23:12:55.030Z,9.84
2023-04-27T23:15:28.261Z,9.82
2023-04-27T23:17:58.842Z,9.81
2023-04-27T23:20:29.481Z,9.77
2023-04-27T23:23:00.142Z,9.76
2023-04-27T23:25:30.880Z,9.71
2023-04-27T23:28:01.558Z,9.65
2023-04-27T23:30:35.302Z,9.65
2023-04-27T23:33:06.244Z,9.67
2023-04-27T23:35:36.913Z,9.66
2023-04-27T23:38:07.503Z,9.64
2023-04-27T23:40:38.078Z,9.71
2023-04-27T23:43:08.567Z,9.62
2023-04-27T23:45:42.056Z,9.63
2023-04-27T23:48:12.554Z,9.60
2023-04-27T23:50:43.120Z,9.59
2023-04-27T23:53:13.720Z,9.59
2023-04-27T23:55:44.306Z,9.53
2023-04-27T23:58:14.805Z,9.41
